sensor_id;sensor_type;location;lat;lon;timestamp;temperature;humidity
3488;DHT22;38546;48.170;11.724;2024-03-02T00:00:24;7.00;99.90
3488;DHT22;38546;48.170;11.724;2024-03-02T00:02:56;7.00;99.90
3488;DHT22;38546;48.170;11.724;2024-03-02T00:05:26;6.90;99.90
3488;DHT22;38546;48.170;11.724;2024-03-02T00:07:58;6.90;99.90
3488;DHT22;38546;48.170;11.724;2024-03-02T00:10:35;6.90;99.90
3488;DHT22;38546;48.170;11.724;2024-03-02T00:13:09;6.90;99.90
3488;DHT22;38546;48.170;11.724;2024-03-02T00:15:48;6.80;99.90
3488;DHT22;38546;48.170;11.724;2024-03-02T00:18:27;6.80;99.90
3488;DHT22;38546;48.170;11.724;2024-03-02T00:21:01;6.80;99.90
3488;DHT22;38546;48.170;11.724;2024-03-02T00:23:34;6.70;99.90
3488;DHT22;38546;48.170;11.724;2024-03-02T00:26:05;6.70;99.90
3488;DHT22;38546;48.170;11.724;2024-03-02T00:28:36;6.70;99.90
3488;DHT22;38546;48.170;11.724;2024-03-02T00:31:12;6.70;99.90
3488;DHT22;38546;48.170;11.724;2024-03-02T00:33:45;6.70;99.90
3488;DHT22;38546;48.170;11.724;2024-03-02T00:36:24;6.60;99.90
3488;DHT22;38546;48.170;11.724;2024-03-02T00:38:57;6.60;99.90
3488;DHT22;38546;48.170;11.724;2024-03-02T00:41:30;6.60;99.90
3488;DHT22;38546;48.170;11.724;2024-03-02T00:44:12;6.60;99.90
3488;DHT22;38546;48.170;11.724;2024-03-02T00:46:43;6.60;99.90
3488;DHT22;38546;48.170;11.724;2024-03-02T00:49:22;6.60;99.90
3488;DHT22;38546;48.170;11.724;2024-03-02T00:51:54;6.50;99.90
3488;DHT22;38546;48.170;11.724;2024-03-02T00:54:26;6.50;99.90
3488;DHT22;38546;48.170;11.724;2024-03-02T00:56:58;6.50;99.90
3488;DHT22;38546;48.170;11.724;2024-03-02T00:59:29;6.50;99.90
3488;DHT22;38546;48.170;11.724;2024-03-02T01:02:02;6.40;99.90
3488;DHT22;38546;48.170;11.724;2024-03-02T01:04:32;6.40;99.90
3488;DHT22;38546;48.170;11.724;2024-03-02T01:07:03;6.40;99.90
3488;DHT22;38546;48.170;11.724;2024-03-02T01:09:34;6.40;99.90
3488;DHT22;38546;48.170;11.724;2024-03-02T01:12:05;6.40;99.90
3488;DHT22;38546;48.170;11.724;2024-03-02T01:14:37;6.50;99.90
3488;DHT22;38546;48.170;11.724;2024-03-02T01:17:07;6.40;99.90
3488;DHT22;38546;48.170;11.724;2024-03-02T01:19:38;6.50;99.90
3488;DHT22;38546;48.170;11.724;2024-03-02T01:22:11;6.50;99.90
3488;DHT22;38546;48.170;11.724;2024-03-02T01:24:42;6.50;99.90
3488;DHT22;38546;48.170;11.724;2024-03-02T01:27:14;6.40;99.90
3488;DHT22;38546;48.170;11.724;2024-03-02T01:29:44;6.50;99.90
3488;DHT22;38546;48.170;11.724;2024-03-02T01:32:15;6.50;99.90
3488;DHT22;38546;48.170;11.724;2024-03-02T01:34:46;6.50;99.90
3488;DHT22;38546;48.170;11.724;2024-03-02T01:37:17;6.50;99.90
3488;DHT22;38546;48.170;11.724;2024-03-02T01:39:47;6.50;99.90
3488;DHT22;38546;48.170;11.724;2024-03-02T01:42:18;6.50;99.90
3488;DHT22;38546;48.170;11.724;2024-03-02T01:44:49;6.50;99.90
3488;DHT22;38546;48.170;11.724;2024-03-02T01:47:19;6.50;99.90
3488;DHT22;38546;48.170;11.724;2024-03-02T01:49:50;6.50;99.90
3488;DHT22;38546;48.170;11.724;2024-03-02T01:52:21;6.50;99.90
3488;DHT22;38546;48.170;11.724;2024-03-02T01:54:51;6.50;99.90
3488;DHT22;38546;48.170;11.724;2024-03-02T01:57:22;6.50;99.90
3488;DHT22;38546;48.170;11.724;2024-03-02T01:59:53;6.50;99.90
3488;DHT22;38546;48.170;11.724;2024-03-02T02:02:23;6.50;99.90
3488;DHT22;38546;48.170;11.724;2024-03-02T02:04:54;6.50;99.90
3488;DHT22;38546;48.170;11.724;2024-03-02T02:07:25;6.50;99.90
3488;DHT22;38546;48.170;11.724;2024-03-02T02:09:55;6.50;99.90
3488;DHT22;38546;48.170;11.724;2024-03-02T02:12:26;6.50;99.90
3488;DHT22;38546;48.170;11.724;2024-03-02T02:14:57;6.50;99.90
3488;DHT22;38546;48.170;11.724;2024-03-02T02:17:28;6.50;99.90
3488;DHT22;38546;48.170;11.724;2024-03-02T02:20:00;6.50;99.90
3488;DHT22;38546;48.170;11.724;2024-03-02T02:22:31;6.50;99.90
3488;DHT22;38546;48.170;11.724;2024-03-02T02:25:01;6.50;99.90
3488;DHT22;38546;48.170;11.724;2024-03-02T02:27:32;6.50;99.90
3488;DHT22;38546;48.170;11.724;2024-03-02T02:30:03;6.50;99.90
3488;DHT22;38546;48.170;11.724;2024-03-02T02:32:34;6.50;99.90
3488;DHT22;38546;48.170;11.724;2024-03-02T02:35:06;6.50;99.90
3488;DHT22;38546;48.170;11.724;2024-03-02T02:37:37;6.50;99.90
3488;DHT22;38546;48.170;11.724;2024-03-02T02:40:10;6.40;99.90
3488;DHT22;38546;48.170;11.724;2024-03-02T02:42:41;6.40;99.90
3488;DHT22;38546;48.170;11.724;2024-03-02T02:45:11;6.40;99.90
3488;DHT22;38546;48.170;11.724;2024-03-02T02:47:44;6.40;99.90
3488;DHT22;38546;48.170;11.724;2024-03-02T02:50:15;6.40;99.90
3488;DHT22;38546;48.170;11.724;2024-03-02T02:52:46;6.40;99.90
3488;DHT22;38546;48.170;11.724;2024-03-02T02:55:17;6.40;99.90
3488;DHT22;38546;48.170;11.724;2024-03-02T02:57:47;6.40;99.90
3488;DHT22;38546;48.170;11.724;2024-03-02T03:00:19;6.40;99.90
3488;DHT22;38546;48.170;11.724;2024-03-02T03:02:50;6.40;99.90
3488;DHT22;38546;48.170;11.724;2024-03-02T03:05:21;6.40;99.90
3488;DHT22;38546;48.170;11.724;2024-03-02T03:07:52;6.40;99.90
3488;DHT22;38546;48.170;11.724;2024-03-02T03:10:22;6.40;99.90
3488;DHT22;38546;48.170;11.724;2024-03-02T03:12:54;6.40;99.90
3488;DHT22;38546;48.170;11.724;2024-03-02T03:15:26;6.40;99.90
3488;DHT22;38546;48.170;11.724;2024-03-02T03:17:57;6.50;99.90
3488;DHT22;38546;48.170;11.724;2024-03-02T03:20:28;6.40;99.90
3488;DHT22;38546;48.170;11.724;2024-03-02T03:22:58;6.50;99.90
3488;DHT22;38546;48.170;11.724;2024-03-02T03:25:29;6.50;99.90
3488;DHT22;38546;48.170;11.724;2024-03-02T03:28:00;6.50;99.90
3488;DHT22;38546;48.170;11.724;2024-03-02T03:30:32;6.60;99.90
3488;DHT22;38546;48.170;11.724;2024-03-02T03:33:03;6.60;99.90
3488;DHT22;38546;48.170;11.724;2024-03-02T03:35:34;6.60;99.90
3488;DHT22;38546;48.170;11.724;2024-03-02T03:38:05;6.60;99.90
3488;DHT22;38546;48.170;11.724;2024-03-02T03:40:35;6.50;99.90
3488;DHT22;38546;48.170;11.724;2024-03-02T03:43:06;6.50;99.90
3488;DHT22;38546;48.170;11.724;2024-03-02T03:45:37;6.50;99.90
3488;DHT22;38546;48.170;11.724;2024-03-02T03:48:08;6.60;99.90
3488;DHT22;38546;48.170;11.724;2024-03-02T03:50:39;6.60;99.90
3488;DHT22;38546;48.170;11.724;2024-03-02T03:53:10;6.50;99.90
3488;DHT22;38546;48.170;11.724;2024-03-02T03:55:40;6.50;99.90
3488;DHT22;38546;48.170;11.724;2024-03-02T03:58:11;6.40;99.90
3488;DHT22;38546;48.170;11.724;2024-03-02T04:00:43;6.40;99.90
3488;DHT22;38546;48.170;11.724;2024-03-02T04:03:13;6.40;99.90
3488;DHT22;38546;48.170;11.724;2024-03-02T04:05:44;6.40;99.90
3488;DHT22;38546;48.170;11.724;2024-03-02T04:08:15;6.40;99.90
3488;DHT22;38546;48.170;11.724;2024-03-02T04:10:45;6.40;99.90
3488;DHT22;38546;48.170;11.724;2024-03-02T04:13:16;6.40;99.90
3488;DHT22;38546;48.170;11.724;2024-03-02T04:15:46;6.40;99.90
3488;DHT22;38546;48.170;11.724;2024-03-02T04:18:17;6.40;99.90
3488;DHT22;38546;48.170;11.724;2024-03-02T04:20:48;6.40;99.90
3488;DHT22;38546;48.170;11.724;2024-03-02T04:23:19;6.40;99.90
3488;DHT22;38546;48.170;11.724;2024-03-02T04:25:50;6.30;99.90
3488;DHT22;38546;48.170;11.724;2024-03-02T04:28:20;6.40;99.90
3488;DHT22;38546;48.170;11.724;2024-03-02T04:30:51;6.30;99.90
3488;DHT22;38546;48.170;11.724;2024-03-02T04:33:22;6.30;99.90
3488;DHT22;38546;48.170;11.724;2024-03-02T04:35:52;6.30;99.90
3488;DHT22;38546;48.170;11.724;2024-03-02T04:38:23;6.30;99.90
3488;DHT22;38546;48.170;11.724;2024-03-02T04:40:54;6.30;99.90
3488;DHT22;38546;48.170;11.724;2024-03-02T04:43:25;6.40;99.90
3488;DHT22;38546;48.170;11.724;2024-03-02T04:45:55;6.30;99.90
3488;DHT22;38546;48.170;11.724;2024-03-02T04:48:26;6.30;99.90
3488;DHT22;38546;48.170;11.724;2024-03-02T04:50:57;6.30;99.90
3488;DHT22;38546;48.170;11.724;2024-03-02T04:53:28;6.30;99.90
3488;DHT22;38546;48.170;11.724;2024-03-02T04:55:58;6.30;99.90
3488;DHT22;38546;48.170;11.724;2024-03-02T04:58:47;6.30;99.90
3488;DHT22;38546;48.170;11.724;2024-03-02T05:01:18;6.30;99.90
3488;DHT22;38546;48.170;11.724;2024-03-02T05:03:49;6.30;99.90
3488;DHT22;38546;48.170;11.724;2024-03-02T05:06:20;6.30;99.90
3488;DHT22;38546;48.170;11.724;2024-03-02T05:08:50;6.30;99.90
3488;DHT22;38546;48.170;11.724;2024-03-02T05:11:21;6.30;99.90
3488;DHT22;38546;48.170;11.724;2024-03-02T05:14:10;6.30;99.90
3488;DHT22;38546;48.170;11.724;2024-03-02T05:16:40;6.30;99.90
3488;DHT22;38546;48.170;11.724;2024-03-02T05:19:12;6.30;99.90
3488;DHT22;38546;48.170;11.724;2024-03-02T05:21:42;6.30;99.90
3488;DHT22;38546;48.170;11.724;2024-03-02T05:24:13;6.30;99.90
3488;DHT22;38546;48.170;11.724;2024-03-02T05:26:44;6.40;99.90
3488;DHT22;38546;48.170;11.724;2024-03-02T05:29:15;6.40;99.90
3488;DHT22;38546;48.170;11.724;2024-03-02T05:31:45;6.40;99.90
3488;DHT22;38546;48.170;11.724;2024-03-02T05:34:16;6.40;99.90
3488;DHT22;38546;48.170;11.724;2024-03-02T05:36:47;6.30;99.90
3488;DHT22;38546;48.170;11.724;2024-03-02T05:39:17;6.30;99.90
3488;DHT22;38546;48.170;11.724;2024-03-02T05:41:48;6.30;99.90
3488;DHT22;38546;48.170;11.724;2024-03-02T05:44:19;6.30;99.90
3488;DHT22;38546;48.170;11.724;2024-03-02T05:46:49;6.30;99.90
3488;DHT22;38546;48.170;11.724;2024-03-02T05:49:20;6.30;99.90
3488;DHT22;38546;48.170;11.724;2024-03-02T05:51:51;6.30;99.90
3488;DHT22;38546;48.170;11.724;2024-03-02T05:54:22;6.30;99.90
3488;DHT22;38546;48.170;11.724;2024-03-02T05:56:52;6.30;99.90
3488;DHT22;38546;48.170;11.724;2024-03-02T05:59:23;6.30;99.90
3488;DHT22;38546;48.170;11.724;2024-03-02T06:01:54;6.30;99.90
3488;DHT22;38546;48.170;11.724;2024-03-02T06:04:24;6.30;99.90
3488;DHT22;38546;48.170;11.724;2024-03-02T06:06:55;6.30;99.90
3488;DHT22;38546;48.170;11.724;2024-03-02T06:09:26;6.30;99.90
3488;DHT22;38546;48.170;11.724;2024-03-02T06:11:57;6.30;99.90
3488;DHT22;38546;48.170;11.724;2024-03-02T06:14:27;6.30;99.90
3488;DHT22;38546;48.170;11.724;2024-03-02T06:16:58;6.30;99.90
3488;DHT22;38546;48.170;11.724;2024-03-02T06:19:29;6.30;99.90
3488;DHT22;38546;48.170;11.724;2024-03-02T06:22:00;6.30;99.90
3488;DHT22;38546;48.170;11.724;2024-03-02T06:24:31;6.30;99.90
3488;DHT22;38546;48.170;11.724;2024-03-02T06:27:01;6.40;99.90
3488;DHT22;38546;48.170;11.724;2024-03-02T06:29:33;6.40;99.90
3488;DHT22;38546;48.170;11.724;2024-03-02T06:32:06;6.40;99.90
3488;DHT22;38546;48.170;11.724;2024-03-02T06:34:37;6.40;99.90
3488;DHT22;38546;48.170;11.724;2024-03-02T06:37:08;6.40;99.90
3488;DHT22;38546;48.170;11.724;2024-03-02T06:39:38;6.40;99.90
3488;DHT22;38546;48.170;11.724;2024-03-02T06:42:09;6.40;99.90
3488;DHT22;38546;48.170;11.724;2024-03-02T06:44:39;6.40;99.90
3488;DHT22;38546;48.170;11.724;2024-03-02T06:47:10;6.40;99.90
3488;DHT22;38546;48.170;11.724;2024-03-02T06:49:41;6.40;99.90
3488;DHT22;38546;48.170;11.724;2024-03-02T06:52:13;6.40;99.90
3488;DHT22;38546;48.170;11.724;2024-03-02T06:54:43;6.40;99.90
3488;DHT22;38546;48.170;11.724;2024-03-02T06:57:14;6.40;99.90
3488;DHT22;38546;48.170;11.724;2024-03-02T06:59:46;6.50;99.90
3488;DHT22;38546;48.170;11.724;2024-03-02T07:02:19;6.50;99.90
3488;DHT22;38546;48.170;11.724;2024-03-02T07:04:50;6.50;99.90
3488;DHT22;38546;48.170;11.724;2024-03-02T07:07:21;6.60;99.90
3488;DHT22;38546;48.170;11.724;2024-03-02T07:09:52;6.60;99.90
3488;DHT22;38546;48.170;11.724;2024-03-02T07:12:23;6.60;99.90
3488;DHT22;38546;48.170;11.724;2024-03-02T07:14:53;6.70;99.90
3488;DHT22;38546;48.170;11.724;2024-03-02T07:17:34;6.70;99.90
3488;DHT22;38546;48.170;11.724;2024-03-02T07:20:07;6.70;99.90
3488;DHT22;38546;48.170;11.724;2024-03-02T07:22:39;6.80;99.90
3488;DHT22;38546;48.170;11.724;2024-03-02T07:25:10;6.80;99.90
3488;DHT22;38546;48.170;11.724;2024-03-02T07:27:40;6.90;99.90
3488;DHT22;38546;48.170;11.724;2024-03-02T07:30:14;6.90;99.90
3488;DHT22;38546;48.170;11.724;2024-03-02T07:32:49;7.00;99.90
3488;DHT22;38546;48.170;11.724;2024-03-02T07:35:20;7.00;99.90
3488;DHT22;38546;48.170;11.724;2024-03-02T07:37:53;7.00;99.90
3488;DHT22;38546;48.170;11.724;2024-03-02T07:40:24;7.10;99.90
3488;DHT22;38546;48.170;11.724;2024-03-02T07:42:55;7.10;99.90
3488;DHT22;38546;48.170;11.724;2024-03-02T07:45:28;7.10;99.90
3488;DHT22;38546;48.170;11.724;2024-03-02T07:47:59;7.10;99.90
3488;DHT22;38546;48.170;11.724;2024-03-02T07:50:30;7.00;99.90
3488;DHT22;38546;48.170;11.724;2024-03-02T07:53:03;7.10;99.90
3488;DHT22;38546;48.170;11.724;2024-03-02T07:55:35;7.10;99.90
3488;DHT22;38546;48.170;11.724;2024-03-02T07:58:06;7.00;99.90
3488;DHT22;38546;48.170;11.724;2024-03-02T08:00:39;7.10;99.90
3488;DHT22;38546;48.170;11.724;2024-03-02T08:03:10;7.10;99.90
3488;DHT22;38546;48.170;11.724;2024-03-02T08:05:41;7.10;99.90
3488;DHT22;38546;48.170;11.724;2024-03-02T08:08:12;7.10;99.90
3488;DHT22;38546;48.170;11.724;2024-03-02T08:10:43;7.20;99.90
3488;DHT22;38546;48.170;11.724;2024-03-02T08:13:13;7.10;99.90
3488;DHT22;38546;48.170;11.724;2024-03-02T08:15:44;7.20;99.90
3488;DHT22;38546;48.170;11.724;2024-03-02T08:18:15;7.20;99.90
3488;DHT22;38546;48.170;11.724;2024-03-02T08:20:46;7.20;99.90
3488;DHT22;38546;48.170;11.724;2024-03-02T08:23:17;7.20;99.90
3488;DHT22;38546;48.170;11.724;2024-03-02T08:25:47;7.30;99.90
3488;DHT22;38546;48.170;11.724;2024-03-02T08:28:18;7.30;99.90
3488;DHT22;38546;48.170;11.724;2024-03-02T08:30:50;7.30;99.90
3488;DHT22;38546;48.170;11.724;2024-03-02T08:33:20;7.30;99.90
3488;DHT22;38546;48.170;11.724;2024-03-02T08:35:51;7.40;99.90
3488;DHT22;38546;48.170;11.724;2024-03-02T08:38:22;7.40;99.90
3488;DHT22;38546;48.170;11.724;2024-03-02T08:40:53;7.40;99.90
3488;DHT22;38546;48.170;11.724;2024-03-02T08:43:24;7.50;99.90
3488;DHT22;38546;48.170;11.724;2024-03-02T08:45:55;7.50;99.90
3488;DHT22;38546;48.170;11.724;2024-03-02T08:48:26;7.50;99.90
3488;DHT22;38546;48.170;11.724;2024-03-02T08:50:56;7.50;99.90
3488;DHT22;38546;48.170;11.724;2024-03-02T08:53:27;7.50;99.90
3488;DHT22;38546;48.170;11.724;2024-03-02T08:55:58;7.70;99.90
3488;DHT22;38546;48.170;11.724;2024-03-02T08:58:28;7.90;99.90
3488;DHT22;38546;48.170;11.724;2024-03-02T09:00:59;8.00;99.90
3488;DHT22;38546;48.170;11.724;2024-03-02T09:03:31;8.20;99.90
3488;DHT22;38546;48.170;11.724;2024-03-02T09:06:04;8.40;99.90
3488;DHT22;38546;48.170;11.724;2024-03-02T09:08:34;8.60;99.90
3488;DHT22;38546;48.170;11.724;2024-03-02T09:11:07;8.90;99.90
3488;DHT22;38546;48.170;11.724;2024-03-02T09:13:38;9.00;99.90
3488;DHT22;38546;48.170;11.724;2024-03-02T09:16:10;9.10;99.90
3488;DHT22;38546;48.170;11.724;2024-03-02T09:18:41;9.20;99.90
3488;DHT22;38546;48.170;11.724;2024-03-02T09:21:12;9.30;99.90
3488;DHT22;38546;48.170;11.724;2024-03-02T09:23:43;9.40;99.90
3488;DHT22;38546;48.170;11.724;2024-03-02T09:26:16;9.60;99.90
3488;DHT22;38546;48.170;11.724;2024-03-02T09:28:47;9.70;99.90
3488;DHT22;38546;48.170;11.724;2024-03-02T09:31:17;9.80;99.90
3488;DHT22;38546;48.170;11.724;2024-03-02T09:33:48;9.90;99.90
3488;DHT22;38546;48.170;11.724;2024-03-02T09:36:22;10.00;99.90
3488;DHT22;38546;48.170;11.724;2024-03-02T09:38:53;10.20;99.90
3488;DHT22;38546;48.170;11.724;2024-03-02T09:41:24;10.40;99.90
3488;DHT22;38546;48.170;11.724;2024-03-02T09:43:55;10.60;99.90
3488;DHT22;38546;48.170;11.724;2024-03-02T09:46:26;10.70;99.90
3488;DHT22;38546;48.170;11.724;2024-03-02T09:48:57;10.90;99.90
3488;DHT22;38546;48.170;11.724;2024-03-02T09:51:28;11.00;99.90
3488;DHT22;38546;48.170;11.724;2024-03-02T09:54:01;11.20;99.90
3488;DHT22;38546;48.170;11.724;2024-03-02T09:56:32;11.30;99.90
3488;DHT22;38546;48.170;11.724;2024-03-02T09:59:03;11.50;99.90
3488;DHT22;38546;48.170;11.724;2024-03-02T10:01:33;11.60;99.90
3488;DHT22;38546;48.170;11.724;2024-03-02T10:04:05;11.80;99.90
3488;DHT22;38546;48.170;11.724;2024-03-02T10:06:36;11.80;99.90
3488;DHT22;38546;48.170;11.724;2024-03-02T10:09:06;12.00;99.90
3488;DHT22;38546;48.170;11.724;2024-03-02T10:11:37;12.10;99.90
3488;DHT22;38546;48.170;11.724;2024-03-02T10:14:11;12.10;99.90
3488;DHT22;38546;48.170;11.724;2024-03-02T10:16:44;12.10;99.90
3488;DHT22;38546;48.170;11.724;2024-03-02T10:19:24;12.20;99.90
3488;DHT22;38546;48.170;11.724;2024-03-02T10:21:56;12.30;99.90
3488;DHT22;38546;48.170;11.724;2024-03-02T10:24:41;12.40;99.90
3488;DHT22;38546;48.170;11.724;2024-03-02T10:27:26;12.50;99.90
3488;DHT22;38546;48.170;11.724;2024-03-02T10:29:58;12.40;99.90
3488;DHT22;38546;48.170;11.724;2024-03-02T10:32:29;12.40;99.90
3488;DHT22;38546;48.170;11.724;2024-03-02T10:35:00;12.20;99.90
3488;DHT22;38546;48.170;11.724;2024-03-02T10:37:32;12.10;99.90
3488;DHT22;38546;48.170;11.724;2024-03-02T10:40:07;12.00;99.90
3488;DHT22;38546;48.170;11.724;2024-03-02T10:42:39;12.00;99.90
3488;DHT22;38546;48.170;11.724;2024-03-02T10:45:12;12.00;99.90
3488;DHT22;38546;48.170;11.724;2024-03-02T10:47:46;11.90;99.90
3488;DHT22;38546;48.170;11.724;2024-03-02T10:50:19;11.90;99.90
3488;DHT22;38546;48.170;11.724;2024-03-02T10:52:49;12.00;99.90
3488;DHT22;38546;48.170;11.724;2024-03-02T10:55:20;12.00;99.90
3488;DHT22;38546;48.170;11.724;2024-03-02T10:57:52;11.90;99.90
3488;DHT22;38546;48.170;11.724;2024-03-02T11:00:25;12.00;99.90
3488;DHT22;38546;48.170;11.724;2024-03-02T11:03:10;12.10;99.90
3488;DHT22;38546;48.170;11.724;2024-03-02T11:05:44;12.10;99.90
3488;DHT22;38546;48.170;11.724;2024-03-02T11:08:18;12.10;99.90
3488;DHT22;38546;48.170;11.724;2024-03-02T11:11:06;12.10;99.90
3488;DHT22;38546;48.170;11.724;2024-03-02T11:13:38;12.00;99.90
3488;DHT22;38546;48.170;11.724;2024-03-02T11:16:21;12.00;99.90
3488;DHT22;38546;48.170;11.724;2024-03-02T11:19:09;11.80;99.90
3488;DHT22;38546;48.170;11.724;2024-03-02T11:21:42;11.80;99.90
3488;DHT22;38546;48.170;11.724;2024-03-02T11:25:25;11.70;99.90
3488;DHT22;38546;48.170;11.724;2024-03-02T11:28:06;11.70;99.90
3488;DHT22;38546;48.170;11.724;2024-03-02T11:30:49;11.70;99.90
3488;DHT22;38546;48.170;11.724;2024-03-02T11:33:23;11.70;99.90
3488;DHT22;38546;48.170;11.724;2024-03-02T11:35:56;11.80;99.90
3488;DHT22;38546;48.170;11.724;2024-03-02T11:38:34;11.70;99.90
3488;DHT22;38546;48.170;11.724;2024-03-02T11:41:09;11.70;99.90
3488;DHT22;38546;48.170;11.724;2024-03-02T11:43:40;11.80;99.90
3488;DHT22;38546;48.170;11.724;2024-03-02T11:46:11;11.80;99.90
3488;DHT22;38546;48.170;11.724;2024-03-02T11:48:43;11.80;99.90
3488;DHT22;38546;48.170;11.724;2024-03-02T11:51:14;11.70;99.90
3488;DHT22;38546;48.170;11.724;2024-03-02T11:53:45;11.90;99.90
3488;DHT22;38546;48.170;11.724;2024-03-02T11:56:18;11.90;99.90
3488;DHT22;38546;48.170;11.724;2024-03-02T11:58:53;11.80;99.90
3488;DHT22;38546;48.170;11.724;2024-03-02T12:01:24;11.70;99.90
3488;DHT22;38546;48.170;11.724;2024-03-02T12:03:55;11.90;99.90
3488;DHT22;38546;48.170;11.724;2024-03-02T12:06:26;11.80;99.90
3488;DHT22;38546;48.170;11.724;2024-03-02T12:08:59;11.60;99.90
3488;DHT22;38546;48.170;11.724;2024-03-02T12:11:30;11.70;99.90
3488;DHT22;38546;48.170;11.724;2024-03-02T12:14:01;11.70;99.90
3488;DHT22;38546;48.170;11.724;2024-03-02T12:16:31;11.60;99.90
3488;DHT22;38546;48.170;11.724;2024-03-02T12:19:05;11.70;99.90
3488;DHT22;38546;48.170;11.724;2024-03-02T12:21:36;11.70;99.90
3488;DHT22;38546;48.170;11.724;2024-03-02T12:24:08;11.80;99.90
3488;DHT22;38546;48.170;11.724;2024-03-02T12:26:39;11.80;99.90
3488;DHT22;38546;48.170;11.724;2024-03-02T12:29:10;11.80;99.90
3488;DHT22;38546;48.170;11.724;2024-03-02T12:31:42;11.80;99.90
3488;DHT22;38546;48.170;11.724;2024-03-02T12:34:16;12.00;99.90
3488;DHT22;38546;48.170;11.724;2024-03-02T12:36:48;12.10;99.90
3488;DHT22;38546;48.170;11.724;2024-03-02T12:39:22;12.00;99.90
3488;DHT22;38546;48.170;11.724;2024-03-02T12:41:53;11.90;99.90
3488;DHT22;38546;48.170;11.724;2024-03-02T12:44:25;11.90;99.90
3488;DHT22;38546;48.170;11.724;2024-03-02T12:46:56;11.90;99.90
3488;DHT22;38546;48.170;11.724;2024-03-02T12:49:26;12.00;99.90
3488;DHT22;38546;48.170;11.724;2024-03-02T12:51:59;12.00;99.90
3488;DHT22;38546;48.170;11.724;2024-03-02T12:54:29;12.00;99.90
3488;DHT22;38546;48.170;11.724;2024-03-02T12:57:00;11.90;99.90
3488;DHT22;38546;48.170;11.724;2024-03-02T12:59:32;12.00;99.90
3488;DHT22;38546;48.170;11.724;2024-03-02T13:02:03;12.00;99.90
3488;DHT22;38546;48.170;11.724;2024-03-02T13:04:34;11.80;99.90
3488;DHT22;38546;48.170;11.724;2024-03-02T13:07:05;11.90;99.90
3488;DHT22;38546;48.170;11.724;2024-03-02T13:09:35;11.60;99.90
3488;DHT22;38546;48.170;11.724;2024-03-02T13:12:07;11.60;99.90
3488;DHT22;38546;48.170;11.724;2024-03-02T13:14:37;11.70;99.90
3488;DHT22;38546;48.170;11.724;2024-03-02T13:17:09;11.70;99.90
3488;DHT22;38546;48.170;11.724;2024-03-02T13:19:57;11.80;99.90
3488;DHT22;38546;48.170;11.724;2024-03-02T13:22:29;11.80;99.90
3488;DHT22;38546;48.170;11.724;2024-03-02T13:24:59;11.80;99.90
3488;DHT22;38546;48.170;11.724;2024-03-02T13:27:32;11.80;99.90
3488;DHT22;38546;48.170;11.724;2024-03-02T13:30:04;11.80;99.90
3488;DHT22;38546;48.170;11.724;2024-03-02T13:32:39;11.70;99.90
3488;DHT22;38546;48.170;11.724;2024-03-02T13:35:10;12.00;99.90
3488;DHT22;38546;48.170;11.724;2024-03-02T13:37:41;12.10;99.90
3488;DHT22;38546;48.170;11.724;2024-03-02T13:40:12;12.20;99.90
3488;DHT22;38546;48.170;11.724;2024-03-02T13:42:48;12.10;99.90
3488;DHT22;38546;48.170;11.724;2024-03-02T13:45:20;12.20;99.90
3488;DHT22;38546;48.170;11.724;2024-03-02T13:47:50;12.10;99.90
3488;DHT22;38546;48.170;11.724;2024-03-02T13:50:22;12.20;99.90
3488;DHT22;38546;48.170;11.724;2024-03-02T13:52:53;12.10;99.90
3488;DHT22;38546;48.170;11.724;2024-03-02T13:55:23;12.20;99.90
3488;DHT22;38546;48.170;11.724;2024-03-02T13:57:54;12.10;99.90
3488;DHT22;38546;48.170;11.724;2024-03-02T14:00:25;12.00;99.90
3488;DHT22;38546;48.170;11.724;2024-03-02T14:02:56;12.00;99.90
3488;DHT22;38546;48.170;11.724;2024-03-02T14:05:27;12.00;99.90
3488;DHT22;38546;48.170;11.724;2024-03-02T14:07:58;12.00;99.90
3488;DHT22;38546;48.170;11.724;2024-03-02T14:10:30;12.00;99.90
3488;DHT22;38546;48.170;11.724;2024-03-02T14:13:01;12.00;99.90
3488;DHT22;38546;48.170;11.724;2024-03-02T14:15:32;12.10;99.90
3488;DHT22;38546;48.170;11.724;2024-03-02T14:18:02;12.50;99.90
3488;DHT22;38546;48.170;11.724;2024-03-02T14:20:34;12.30;99.90
3488;DHT22;38546;48.170;11.724;2024-03-02T14:23:04;12.50;99.90
3488;DHT22;38546;48.170;11.724;2024-03-02T14:25:35;12.60;99.90
3488;DHT22;38546;48.170;11.724;2024-03-02T14:28:05;12.60;99.90
3488;DHT22;38546;48.170;11.724;2024-03-02T14:30:36;12.40;99.90
3488;DHT22;38546;48.170;11.724;2024-03-02T14:33:08;12.40;99.90
3488;DHT22;38546;48.170;11.724;2024-03-02T14:35:41;12.40;99.90
3488;DHT22;38546;48.170;11.724;2024-03-02T14:38:12;12.40;99.90
3488;DHT22;38546;48.170;11.724;2024-03-02T14:40:43;12.40;99.90
3488;DHT22;38546;48.170;11.724;2024-03-02T14:43:14;12.60;99.90
3488;DHT22;38546;48.170;11.724;2024-03-02T14:45:44;12.50;99.90
3488;DHT22;38546;48.170;11.724;2024-03-02T14:48:15;12.60;99.90
3488;DHT22;38546;48.170;11.724;2024-03-02T14:50:46;12.80;99.90
3488;DHT22;38546;48.170;11.724;2024-03-02T14:53:16;12.40;99.90
3488;DHT22;38546;48.170;11.724;2024-03-02T14:55:47;12.50;99.90
3488;DHT22;38546;48.170;11.724;2024-03-02T14:58:17;12.30;99.90
3488;DHT22;38546;48.170;11.724;2024-03-02T15:00:48;12.40;99.90
3488;DHT22;38546;48.170;11.724;2024-03-02T15:03:19;12.50;99.90
3488;DHT22;38546;48.170;11.724;2024-03-02T15:05:49;12.40;99.90
3488;DHT22;38546;48.170;11.724;2024-03-02T15:08:22;12.40;99.90
3488;DHT22;38546;48.170;11.724;2024-03-02T15:10:52;12.50;99.90
3488;DHT22;38546;48.170;11.724;2024-03-02T15:13:26;12.40;99.90
3488;DHT22;38546;48.170;11.724;2024-03-02T15:15:56;12.30;99.90
3488;DHT22;38546;48.170;11.724;2024-03-02T15:18:27;12.20;99.90
3488;DHT22;38546;48.170;11.724;2024-03-02T15:20:58;12.10;99.90
3488;DHT22;38546;48.170;11.724;2024-03-02T15:23:28;12.10;99.90
3488;DHT22;38546;48.170;11.724;2024-03-02T15:26:00;12.30;99.90
3488;DHT22;38546;48.170;11.724;2024-03-02T15:28:31;12.20;99.90
3488;DHT22;38546;48.170;11.724;2024-03-02T15:31:01;12.20;99.90
3488;DHT22;38546;48.170;11.724;2024-03-02T15:33:33;12.20;99.90
3488;DHT22;38546;48.170;11.724;2024-03-02T15:36:04;12.40;99.90
3488;DHT22;38546;48.170;11.724;2024-03-02T15:38:36;12.40;99.90
3488;DHT22;38546;48.170;11.724;2024-03-02T15:41:07;12.30;99.90
3488;DHT22;38546;48.170;11.724;2024-03-02T15:43:37;12.20;99.90
3488;DHT22;38546;48.170;11.724;2024-03-02T15:46:11;12.30;99.90
3488;DHT22;38546;48.170;11.724;2024-03-02T15:48:42;12.10;99.90
3488;DHT22;38546;48.170;11.724;2024-03-02T15:51:15;12.00;99.90
3488;DHT22;38546;48.170;11.724;2024-03-02T15:53:46;11.90;99.90
3488;DHT22;38546;48.170;11.724;2024-03-02T15:56:19;11.80;99.90
3488;DHT22;38546;48.170;11.724;2024-03-02T15:58:50;12.00;99.90
3488;DHT22;38546;48.170;11.724;2024-03-02T16:01:21;11.90;99.90
3488;DHT22;38546;48.170;11.724;2024-03-02T16:03:52;11.90;99.90
3488;DHT22;38546;48.170;11.724;2024-03-02T16:06:22;11.90;99.90
3488;DHT22;38546;48.170;11.724;2024-03-02T16:08:53;11.80;99.90